Time;durP1;ratioP1;P1;durP2;ratioP2;P2;SDS_P1;SDS_P2;PMS_P1;PMS_P2;Temp;Humidity;BMP_temperature;BMP_pressure;BME280_temperature;BME280_humidity;BME280_pressure;Samples;Min_cycle;Max_cycle;Signal;HPM_P1;HPM_P2
2022/11/16 00:00:49;;;;;;;37.95;21.50;;;13.30;99.90;;;;;;5104878;27;20024;-71
2022/11/16 00:03:14;;;;;;;24.40;18.02;;;13.40;99.90;;;;;;5107894;28;20431;-72
2022/11/16 00:05:40;;;;;;;22.30;17.08;;;13.40;99.90;;;;;;5111437;28;20084;-71
2022/11/16 00:08:05;;;;;;;17.08;13.75;;;13.30;99.90;;;;;;5106488;28;20417;-71
2022/11/16 00:10:31;;;;;;;26.98;18.10;;;13.30;99.90;;;;;;5105899;28;20479;-71
2022/11/16 00:12:57;;;;;;;23.00;16.80;;;13.30;99.90;;;;;;5108614;28;20020;-71
2022/11/16 00:15:22;;;;;;;27.08;18.27;;;13.20;99.90;;;;;;5107139;28;20070;-71
2022/11/16 00:17:48;;;;;;;25.02;17.33;;;13.20;99.90;;;;;;5107817;28;20079;-71
2022/11/16 00:20:14;;;;;;;24.38;16.70;;;13.30;99.90;;;;;;5109672;28;20039;-71
2022/11/16 00:22:39;;;;;;;34.75;20.88;;;13.30;99.90;;;;;;5108477;28;20032;-71
2022/11/16 00:25:05;;;;;;;35.20;20.20;;;13.30;99.90;;;;;;5110968;28;20035;-71
2022/11/16 00:27:31;;;;;;;27.70;16.27;;;13.30;99.90;;;;;;5111761;28;21483;-72
2022/11/16 00:29:56;;;;;;;29.75;19.70;;;13.20;99.90;;;;;;5103567;28;20028;-75
2022/11/16 00:32:22;;;;;;;29.20;18.48;;;13.30;99.90;;;;;;5106877;28;20431;-72
2022/11/16 00:34:48;;;;;;;31.40;20.00;;;13.30;99.90;;;;;;5111474;28;20085;-72
2022/11/16 00:37:13;;;;;;;30.17;20.05;;;13.40;99.90;;;;;;5113075;28;20027;-72
2022/11/16 00:39:39;;;;;;;28.67;19.88;;;13.40;99.90;;;;;;5085397;28;20051;-71
2022/11/16 00:42:04;;;;;;;30.38;20.55;;;13.40;99.90;;;;;;5110687;28;20098;-74
2022/11/16 00:44:30;;;;;;;26.42;18.45;;;13.50;99.90;;;;;;5106696;27;20027;-71
2022/11/16 00:46:56;;;;;;;33.10;21.50;;;13.60;99.90;;;;;;5109195;28;20103;-74
2022/11/16 00:49:21;;;;;;;32.50;21.13;;;13.60;99.90;;;;;;5105441;28;20027;-71
2022/11/16 00:51:47;;;;;;;31.45;20.42;;;13.50;99.90;;;;;;5109462;28;20112;-72
2022/11/16 00:54:13;;;;;;;32.22;21.23;;;13.50;99.90;;;;;;5105749;28;20039;-71
2022/11/16 00:56:38;;;;;;;56.10;24.55;;;13.50;99.90;;;;;;5104802;28;20168;-72
2022/11/16 00:59:04;;;;;;;61.38;24.63;;;13.40;99.90;;;;;;5103931;28;20380;-71
2022/11/16 01:01:30;;;;;;;33.00;19.33;;;13.40;99.90;;;;;;5110916;28;20032;-72
2022/11/16 01:03:55;;;;;;;28.48;19.05;;;13.40;99.90;;;;;;5091515;28;20027;-73
2022/11/16 01:06:22;;;;;;;31.20;19.20;;;13.40;99.90;;;;;;5109660;28;20532;-71
2022/11/16 01:08:48;;;;;;;44.88;23.45;;;13.40;99.90;;;;;;5101468;28;20016;-72
2022/11/16 01:14:05;;;;;;;26.45;18.00;;;13.40;99.90;;;;;;5102240;28;20416;-72
2022/11/16 01:16:31;;;;;;;55.85;24.98;;;13.30;99.90;;;;;;5106890;28;20551;-72
2022/11/16 01:18:57;;;;;;;41.75;22.10;;;13.40;99.90;;;;;;5110997;28;20024;-71
2022/11/16 01:21:23;;;;;;;147.13;35.55;;;13.40;99.90;;;;;;5095110;28;20039;-71
2022/11/16 01:23:49;;;;;;;44.08;24.02;;;13.30;99.90;;;;;;5106173;28;20059;-71
2022/11/16 01:26:15;;;;;;;32.33;19.58;;;13.30;99.90;;;;;;5105627;28;20894;-71
2022/11/16 01:28:40;;;;;;;31.35;20.48;;;13.30;99.90;;;;;;5111537;28;20023;-71
2022/11/16 01:31:08;;;;;;;33.97;19.45;;;13.30;99.90;;;;;;5104792;28;20031;-72
2022/11/16 01:33:34;;;;;;;34.92;19.13;;;13.30;99.90;;;;;;5110422;28;20371;-71
2022/11/16 01:36:00;;;;;;;63.05;23.63;;;13.30;99.90;;;;;;5102360;27;20040;-71
2022/11/16 01:38:25;;;;;;;26.92;18.25;;;13.30;99.90;;;;;;5109128;28;20016;-71
2022/11/16 01:40:51;;;;;;;38.17;22.88;;;13.40;99.90;;;;;;5102625;27;20024;-71
2022/11/16 01:43:19;;;;;;;32.47;19.52;;;13.50;99.90;;;;;;5106041;28;20030;-71
2022/11/16 01:45:45;;;;;;;28.23;18.15;;;13.50;99.90;;;;;;5102595;28;20031;-72
2022/11/16 01:48:20;;;;;;;30.25;20.02;;;13.50;99.90;;;;;;5109061;28;20023;-71
2022/11/16 01:50:48;;;;;;;32.55;18.48;;;13.60;99.90;;;;;;5105468;28;20534;-72
2022/11/16 01:53:14;;;;;;;29.77;18.63;;;13.70;99.90;;;;;;5104754;28;20069;-71
2022/11/16 01:55:43;;;;;;;26.63;17.35;;;13.60;99.90;;;;;;5104864;27;20032;-72
2022/11/16 01:58:16;;;;;;;43.00;21.50;;;13.60;99.90;;;;;;5106080;28;20098;-72
2022/11/16 02:00:42;;;;;;;149.25;33.35;;;13.60;99.90;;;;;;5106605;27;20042;-74
2022/11/16 02:03:08;;;;;;;93.22;24.40;;;13.50;99.90;;;;;;5106124;28;20020;-71
2022/11/16 02:05:44;;;;;;;28.65;16.58;;;13.50;99.90;;;;;;5088051;28;20117;-72
2022/11/16 02:12:00;;;;;;;40.95;18.08;;;13.50;99.90;;;;;;5106637;28;20034;-71
2022/11/16 02:15:02;;;;;;;21.58;14.60;;;13.40;99.90;;;;;;5109581;28;20027;-72
2022/11/16 02:18:05;;;;;;;18.67;11.95;;;13.40;99.90;;;;;;5099824;27;20042;-72
2022/11/16 02:21:15;;;;;;;21.85;12.93;;;13.50;99.90;;;;;;5104743;28;20053;-72
2022/11/16 02:24:08;;;;;;;19.27;12.93;;;13.50;99.90;;;;;;5098439;28;20019;-72
2022/11/16 02:26:57;;;;;;;21.38;13.30;;;13.60;99.90;;;;;;5110219;28;20024;-72
2022/11/16 02:29:27;;;;;;;14.38;9.77;;;13.60;99.90;;;;;;5104463;28;20481;-71
2022/11/16 02:32:16;;;;;;;17.95;12.63;;;13.60;99.90;;;;;;5108185;28;20051;-71
2022/11/16 02:34:59;;;;;;;22.13;13.60;;;13.60;99.90;;;;;;5106420;28;20519;-72
2022/11/16 02:37:27;;;;;;;20.40;12.70;;;13.60;99.90;;;;;;5107083;28;20418;-71
2022/11/16 02:39:57;;;;;;;21.95;13.27;;;13.70;99.90;;;;;;5099155;28;20405;-71
2022/11/16 02:42:31;;;;;;;16.50;10.70;;;13.60;99.90;;;;;;5103477;28;20539;-72
2022/11/16 02:44:59;;;;;;;19.15;11.38;;;13.70;99.90;;;;;;5102965;28;20024;-71
2022/11/16 02:47:30;;;;;;;16.42;10.90;;;13.70;99.90;;;;;;5110632;28;20487;-71
2022/11/16 02:50:02;;;;;;;21.50;12.82;;;13.70;99.90;;;;;;5108976;28;20020;-71
2022/11/16 02:52:28;;;;;;;20.02;13.15;;;13.60;99.90;;;;;;5105853;28;20022;-71
2022/11/16 02:54:54;;;;;;;20.25;12.55;;;13.60;99.90;;;;;;5110778;28;20035;-72
2022/11/16 02:57:41;;;;;;;17.20;10.65;;;13.70;99.90;;;;;;5104297;28;20019;-71
2022/11/16 03:00:09;;;;;;;13.85;9.55;;;13.70;99.90;;;;;;5109057;28;20030;-72
2022/11/16 03:03:03;;;;;;;15.18;10.18;;;13.70;99.90;;;;;;5101303;28;20020;-72
2022/11/16 03:05:50;;;;;;;15.63;10.48;;;13.60;99.90;;;;;;5106347;28;20038;-71
2022/11/16 03:08:27;;;;;;;21.77;12.77;;;13.70;99.90;;;;;;5103171;28;20077;-72
2022/11/16 03:13:43;;;;;;;18.25;10.75;;;13.70;99.90;;;;;;5110675;28;20043;-72
2022/11/16 03:16:32;;;;;;;17.77;11.57;;;13.70;99.90;;;;;;5108267;28;20031;-72
2022/11/16 03:19:01;;;;;;;13.02;9.88;;;13.60;99.90;;;;;;5088618;28;20031;-72
2022/11/16 03:21:35;;;;;;;13.23;9.70;;;13.60;99.90;;;;;;5112592;28;20377;-71
2022/11/16 03:24:01;;;;;;;17.25;11.13;;;13.70;99.90;;;;;;5102737;28;20034;-72
2022/11/16 03:26:34;;;;;;;18.08;10.65;;;13.70;99.90;;;;;;5105577;28;20024;-72
2022/11/16 03:29:13;;;;;;;15.40;10.25;;;13.70;99.90;;;;;;5100479;28;20036;-72
2022/11/16 03:31:49;;;;;;;13.70;9.35;;;13.60;99.90;;;;;;5105220;28;20068;-72
2022/11/16 03:34:19;;;;;;;14.73;11.02;;;13.60;99.90;;;;;;5103180;28;20042;-72
2022/11/16 03:36:47;;;;;;;15.13;9.70;;;13.70;99.90;;;;;;5108174;28;20499;-72
2022/11/16 03:39:20;;;;;;;16.25;10.43;;;13.70;99.90;;;;;;5082777;28;20081;-72
2022/11/16 03:41:47;;;;;;;14.73;9.95;;;13.70;99.90;;;;;;5107011;28;20016;-72
2022/11/16 03:44:14;;;;;;;18.13;10.95;;;13.70;99.90;;;;;;5102998;28;20024;-72
2022/11/16 03:46:41;;;;;;;17.77;9.88;;;13.70;99.90;;;;;;5104977;28;20040;-71
2022/11/16 03:49:07;;;;;;;17.00;10.10;;;13.60;99.90;;;;;;5105785;28;20035;-72
2022/11/16 03:51:33;;;;;;;12.57;8.18;;;13.50;99.90;;;;;;5107063;28;20585;-72
2022/11/16 03:53:59;;;;;;;12.40;8.23;;;13.50;99.90;;;;;;5106744;28;20028;-72
2022/11/16 03:56:24;;;;;;;12.45;7.82;;;13.60;99.90;;;;;;5105824;28;20031;-72
2022/11/16 03:58:50;;;;;;;9.50;7.32;;;13.50;99.90;;;;;;5102301;28;20507;-72
2022/11/16 04:01:16;;;;;;;20.00;7.72;;;13.60;99.90;;;;;;5107266;28;20042;-73
2022/11/16 04:03:41;;;;;;;9.98;6.68;;;13.60;99.90;;;;;;5101724;28;20027;-73
2022/11/16 04:25:49;;;;;;;10.90;6.47;;;13.30;99.90;;;;;;5107426;28;20042;-71
2022/11/16 04:28:16;;;;;;;12.23;7.10;;;13.30;99.90;;;;;;5107853;28;20016;-72
2022/11/16 04:38:59;;;;;;;12.38;6.60;;;13.20;99.90;;;;;;5113351;28;20028;-72
2022/11/16 04:44:09;;;;;;;15.77;7.50;;;13.20;99.90;;;;;;5106587;28;20109;-72
2022/11/16 04:49:19;;;;;;;16.98;10.10;;;13.10;99.90;;;;;;5101855;27;20486;-72
2022/11/16 04:51:44;;;;;;;21.83;11.63;;;13.10;99.90;;;;;;5111839;28;20023;-73
2022/11/16 04:54:10;;;;;;;27.45;12.82;;;13.10;99.90;;;;;;5107306;27;20034;-72
2022/11/16 04:56:35;;;;;;;22.45;12.50;;;13.10;99.90;;;;;;5100094;28;20115;-72
2022/11/16 04:59:01;;;;;;;25.98;13.68;;;13.10;99.90;;;;;;5108481;27;20016;-72
2022/11/16 05:04:11;;;;;;;30.38;16.35;;;13.00;99.90;;;;;;5108951;27;20108;-72
2022/11/16 05:06:36;;;;;;;33.50;16.77;;;12.90;99.90;;;;;;5090377;28;20467;-72
2022/11/16 05:09:02;;;;;;;34.33;15.73;;;12.90;99.90;;;;;;5111400;28;20502;-72
2022/11/16 05:11:28;;;;;;;36.30;15.45;;;12.90;99.90;;;;;;5107882;28;20020;-72
2022/11/16 05:13:53;;;;;;;27.48;13.88;;;12.90;99.90;;;;;;5112414;28;20027;-72
2022/11/16 05:16:19;;;;;;;32.95;13.48;;;12.90;99.90;;;;;;5089824;28;20028;-72
2022/11/16 05:20:59;;;;;;;27.42;13.27;;;12.80;99.90;;;;;;5107391;28;20020;-72
2022/11/16 05:21:30;;;;;;;24.50;10.75;;;12.80;99.90;;;;;;5102718;28;20044;-71
2022/11/16 05:26:40;;;;;;;26.38;9.55;;;12.80;99.90;;;;;;5111390;28;21175;-72
2022/11/16 05:29:05;;;;;;;19.10;8.85;;;12.70;99.90;;;;;;5107524;28;20111;-72
2022/11/16 05:31:31;;;;;;;14.95;7.72;;;12.70;99.90;;;;;;5106157;28;20019;-72
2022/11/16 05:33:56;;;;;;;15.40;7.03;;;12.70;99.90;;;;;;5106114;28;20048;-72
2022/11/16 05:36:22;;;;;;;18.52;6.72;;;12.60;99.90;;;;;;5108246;28;20096;-72
2022/11/16 05:38:48;;;;;;;11.55;6.65;;;12.60;99.90;;;;;;5106699;28;20016;-72
2022/11/16 05:41:13;;;;;;;19.52;6.63;;;12.60;99.90;;;;;;5108488;28;20035;-72
2022/11/16 05:43:39;;;;;;;15.07;6.03;;;12.60;99.90;;;;;;5108661;27;20934;-72
2022/11/16 05:46:05;;;;;;;16.63;5.18;;;12.60;99.90;;;;;;5101363;28;20590;-72
2022/11/16 05:48:30;;;;;;;17.00;5.72;;;12.50;99.90;;;;;;5111599;28;20372;-72
2022/11/16 05:50:59;;;;;;;12.75;5.80;;;12.50;99.90;;;;;;5104425;28;20388;-72
2022/11/16 05:53:25;;;;;;;17.08;5.55;;;12.50;99.90;;;;;;5107875;28;20077;-72
2022/11/16 05:55:51;;;;;;;10.13;5.25;;;12.40;99.90;;;;;;5104087;28;20028;-71
2022/11/16 05:58:16;;;;;;;13.50;5.25;;;12.30;99.90;;;;;;5109353;28;20018;-72
2022/11/16 06:00:45;;;;;;;10.93;4.93;;;12.30;99.90;;;;;;5101952;27;20640;-75
2022/11/16 06:03:10;;;;;;;11.15;5.05;;;12.30;99.90;;;;;;5108725;28;20055;-71
2022/11/16 06:05:36;;;;;;;16.35;5.07;;;12.30;99.90;;;;;;5100509;28;20062;-72
2022/11/16 06:08:02;;;;;;;13.80;4.97;;;12.30;99.90;;;;;;5104398;28;20024;-71
2022/11/16 06:10:27;;;;;;;13.57;5.78;;;12.20;99.90;;;;;;5107919;28;20051;-72
2022/11/16 06:12:53;;;;;;;15.07;5.68;;;12.20;99.90;;;;;;5108875;28;20076;-72
2022/11/16 06:15:19;;;;;;;18.80;5.72;;;12.20;99.90;;;;;;5093212;28;20127;-72
2022/11/16 06:17:44;;;;;;;13.05;5.63;;;12.20;99.90;;;;;;5110136;28;20024;-72
2022/11/16 06:20:10;;;;;;;12.70;5.75;;;12.20;99.90;;;;;;5109043;28;20396;-71
2022/11/16 06:22:36;;;;;;;10.80;5.50;;;12.10;99.90;;;;;;5113331;28;20023;-71
2022/11/16 06:25:03;;;;;;;9.25;5.45;;;12.10;99.90;;;;;;5091212;28;20038;-72
2022/11/16 06:27:29;;;;;;;12.43;5.70;;;12.10;99.90;;;;;;5099999;28;20020;-71
2022/11/16 06:29:54;;;;;;;11.63;5.38;;;11.90;99.90;;;;;;5109035;28;20387;-71
2022/11/16 06:32:20;;;;;;;13.60;5.60;;;11.80;99.90;;;;;;5108414;28;20084;-72
2022/11/16 06:34:46;;;;;;;12.02;5.80;;;11.80;99.90;;;;;;5109325;28;20067;-71
2022/11/16 06:37:11;;;;;;;16.95;6.75;;;11.80;99.90;;;;;;5110640;28;20022;-71
2022/11/16 06:39:37;;;;;;;18.02;6.57;;;11.90;99.90;;;;;;5106312;28;20031;-72
2022/11/16 06:42:03;;;;;;;16.55;5.93;;;11.80;99.90;;;;;;5100135;28;20034;-72
2022/11/16 06:44:29;;;;;;;13.25;6.13;;;11.80;99.90;;;;;;5108878;28;20012;-71
2022/11/16 06:46:54;;;;;;;14.85;5.15;;;11.80;99.90;;;;;;5110461;28;20028;-76
2022/11/16 06:49:20;;;;;;;14.20;4.72;;;11.70;99.90;;;;;;5093879;28;20046;-72
2022/11/16 06:51:45;;;;;;;15.70;6.90;;;11.80;99.90;;;;;;5106842;28;20023;-71
2022/11/16 06:54:11;;;;;;;16.42;4.85;;;11.70;99.90;;;;;;5106371;28;20034;-72
2022/11/16 06:56:37;;;;;;;15.88;5.00;;;11.70;99.90;;;;;;5101892;28;20019;-72
2022/11/16 06:59:02;;;;;;;11.55;5.22;;;11.70;99.90;;;;;;5101846;28;20118;-72
2022/11/16 07:01:28;;;;;;;11.48;4.82;;;11.70;99.90;;;;;;5102345;28;20326;-72
2022/11/16 07:03:55;;;;;;;15.57;4.25;;;11.70;99.90;;;;;;5107034;28;20036;-72
2022/11/16 07:06:20;;;;;;;10.63;4.00;;;11.70;99.90;;;;;;5107849;28;20076;-72
2022/11/16 07:08:46;;;;;;;8.77;3.90;;;11.70;99.90;;;;;;5100727;28;20269;-72
2022/11/16 07:11:12;;;;;;;13.90;4.88;;;11.60;99.90;;;;;;5107202;28;20024;-71
2022/11/16 07:13:38;;;;;;;16.30;4.53;;;11.60;99.90;;;;;;5100524;28;20028;-72
2022/11/16 07:16:08;;;;;;;11.18;4.38;;;11.50;99.90;;;;;;5104131;28;20123;-72
2022/11/16 07:18:36;;;;;;;14.93;4.22;;;11.50;99.90;;;;;;5090882;28;20392;-72
2022/11/16 07:21:13;;;;;;;12.95;3.65;;;11.50;99.90;;;;;;5107811;28;20027;-72
2022/11/16 07:23:39;;;;;;;11.52;4.45;;;11.40;99.90;;;;;;5097192;28;20027;-72
2022/11/16 07:26:06;;;;;;;11.38;4.90;;;11.40;99.90;;;;;;5102153;28;20110;-72
2022/11/16 07:28:32;;;;;;;15.82;4.90;;;11.40;99.90;;;;;;5099221;28;20019;-72
2022/11/16 07:31:02;;;;;;;18.33;4.78;;;11.40;99.90;;;;;;5100429;28;20452;-72
2022/11/16 07:33:28;;;;;;;15.73;5.00;;;11.40;99.90;;;;;;5100217;28;20031;-72
2022/11/16 07:35:54;;;;;;;12.30;4.25;;;11.50;99.90;;;;;;5092231;28;20036;-72
2022/11/16 07:38:19;;;;;;;23.05;5.20;;;11.40;99.90;;;;;;5102120;28;20023;-73
2022/11/16 07:40:45;;;;;;;15.68;6.13;;;11.40;99.90;;;;;;5106770;28;20375;-73
2022/11/16 07:43:12;;;;;;;12.88;5.45;;;11.40;99.90;;;;;;5108859;28;20031;-73
2022/11/16 07:45:37;;;;;;;17.60;5.40;;;11.30;99.90;;;;;;5098507;28;20038;-72
2022/11/16 07:48:03;;;;;;;15.68;4.63;;;11.40;99.90;;;;;;5100939;28;20103;-72
2022/11/16 07:50:29;;;;;;;15.65;4.57;;;11.40;99.90;;;;;;5112835;28;20357;-72
2022/11/16 07:52:55;;;;;;;14.93;5.75;;;11.30;99.90;;;;;;5105719;28;20066;-72
2022/11/16 07:55:23;;;;;;;15.52;5.10;;;11.30;99.90;;;;;;5111541;28;20035;-72
2022/11/16 07:57:48;;;;;;;13.00;4.65;;;11.30;99.90;;;;;;5102677;27;20047;-72
2022/11/16 08:00:14;;;;;;;15.20;4.38;;;11.20;99.90;;;;;;5107583;28;20067;-73
2022/11/16 08:02:39;;;;;;;11.20;4.00;;;11.10;99.90;;;;;;5107828;28;20599;-73
2022/11/16 08:05:06;;;;;;;16.63;4.85;;;11.20;99.90;;;;;;5095823;28;20028;-74
2022/11/16 08:07:34;;;;;;;15.60;4.28;;;11.20;99.90;;;;;;5106185;28;20054;-73
2022/11/16 08:10:00;;;;;;;9.05;3.70;;;11.20;99.90;;;;;;5106414;28;20070;-74
2022/11/16 08:12:25;;;;;;;13.98;3.92;;;11.20;99.90;;;;;;5108974;28;20031;-74
2022/11/16 08:14:51;;;;;;;9.38;4.20;;;11.10;99.90;;;;;;5086060;28;20028;-73
2022/11/16 08:17:17;;;;;;;13.85;4.13;;;11.10;99.90;;;;;;5111413;28;20375;-74
2022/11/16 08:19:42;;;;;;;20.15;3.90;;;11.10;99.90;;;;;;5095084;28;20031;-73
2022/11/16 08:22:08;;;;;;;16.73;4.57;;;11.20;99.90;;;;;;5105325;27;20037;-74
2022/11/16 08:24:33;;;;;;;17.50;3.97;;;11.30;99.90;;;;;;5109411;28;20118;-72
2022/11/16 08:27:00;;;;;;;14.98;4.43;;;11.30;99.90;;;;;;5106420;28;20549;-73
2022/11/16 08:29:26;;;;;;;11.75;3.75;;;11.30;99.90;;;;;;5111272;28;20059;-74
2022/11/16 08:31:51;;;;;;;18.20;4.38;;;11.40;99.90;;;;;;5101100;27;20116;-71
2022/11/16 08:34:17;;;;;;;16.85;3.92;;;11.30;99.90;;;;;;5109904;28;20011;-71
2022/11/16 08:36:43;;;;;;;10.07;3.63;;;11.30;99.90;;;;;;5106858;28;20369;-71
2022/11/16 08:39:09;;;;;;;11.52;3.22;;;11.30;99.90;;;;;;5103398;28;20077;-71
2022/11/16 08:41:36;;;;;;;12.15;3.38;;;11.30;99.90;;;;;;5107847;28;20032;-71
2022/11/16 08:44:02;;;;;;;12.02;3.60;;;11.20;99.90;;;;;;5104466;28;20480;-71
2022/11/16 08:46:28;;;;;;;13.45;3.75;;;11.20;99.90;;;;;;5112584;28;20467;-72
2022/11/16 08:48:55;;;;;;;13.23;3.33;;;11.30;99.90;;;;;;5107247;28;20047;-71
2022/11/16 08:51:22;;;;;;;12.80;3.55;;;11.30;99.90;;;;;;5105436;28;20019;-73
2022/11/16 08:53:48;;;;;;;12.05;3.17;;;11.30;99.90;;;;;;5107546;28;20019;-72
2022/11/16 08:56:15;;;;;;;17.67;3.53;;;11.30;99.90;;;;;;5108674;28;20507;-73
2022/11/16 08:58:42;;;;;;;14.30;3.17;;;11.30;99.90;;;;;;5102379;28;20484;-73
2022/11/16 09:01:17;;;;;;;10.65;3.30;;;11.40;99.90;;;;;;5106693;28;20037;-75
2022/11/16 09:03:44;;;;;;;15.15;4.15;;;11.40;99.90;;;;;;5108521;27;20024;-73
2022/11/16 09:06:10;;;;;;;13.77;3.75;;;11.30;99.90;;;;;;5107884;28;20038;-73
2022/11/16 09:08:38;;;;;;;15.50;3.72;;;11.40;99.90;;;;;;5104710;28;20107;-73
2022/11/16 09:11:05;;;;;;;16.23;3.72;;;11.50;99.90;;;;;;5103932;28;20052;-74
2022/11/16 09:13:31;;;;;;;14.60;2.92;;;11.50;99.90;;;;;;5107046;28;20028;-73
2022/11/16 09:15:57;;;;;;;20.15;3.33;;;11.50;99.90;;;;;;5108425;28;20430;-73
2022/11/16 09:18:24;;;;;;;11.10;3.28;;;11.50;99.90;;;;;;5102917;28;20459;-74
2022/11/16 09:20:49;;;;;;;16.52;4.00;;;11.50;99.90;;;;;;5107637;28;20037;-73
2022/11/16 09:23:15;;;;;;;12.82;2.97;;;11.60;99.90;;;;;;5105441;27;20106;-73
2022/11/16 09:25:43;;;;;;;14.55;3.28;;;11.60;99.90;;;;;;5108478;28;20442;-73
2022/11/16 09:28:10;;;;;;;14.98;2.80;;;11.60;99.90;;;;;;5108282;28;20057;-73
2022/11/16 09:30:35;;;;;;;15.45;2.40;;;11.50;99.90;;;;;;5105209;28;20035;-73
2022/11/16 09:33:01;;;;;;;13.02;2.70;;;11.60;99.90;;;;;;5102847;28;20028;-74
2022/11/16 09:35:27;;;;;;;15.50;3.30;;;11.70;99.90;;;;;;5106189;28;20088;-73
2022/11/16 09:37:52;;;;;;;13.38;2.72;;;11.70;99.90;;;;;;5104124;28;20027;-73
2022/11/16 09:40:19;;;;;;;19.15;3.70;;;11.70;99.90;;;;;;5107336;28;20024;-72
2022/11/16 09:43:01;;;;;;;10.88;2.08;;;11.80;99.90;;;;;;5103568;28;20472;-72
2022/11/16 09:45:52;;;;;;;13.95;2.60;;;11.90;99.90;;;;;;5091528;28;20499;-72
2022/11/16 09:48:20;;;;;;;10.75;2.30;;;12.10;99.90;;;;;;5103247;28;20034;-72
2022/11/16 09:50:48;;;;;;;11.32;2.33;;;12.10;99.90;;;;;;5102525;28;20142;-73
2022/11/16 09:53:47;;;;;;;10.00;2.22;;;12.30;99.90;;;;;;5105619;28;20490;-73
2022/11/16 09:56:24;;;;;;;12.07;1.90;;;12.30;99.90;;;;;;5107991;28;20046;-72
2022/11/16 09:59:08;;;;;;;11.00;2.20;;;12.20;99.90;;;;;;5109177;28;20065;-72
2022/11/16 10:01:58;;;;;;;6.65;2.08;;;12.30;99.90;;;;;;5084944;28;20081;-73
2022/11/16 10:04:48;;;;;;;14.00;2.17;;;12.30;99.90;;;;;;5086806;28;20146;-72
2022/11/16 10:07:30;;;;;;;8.52;1.98;;;12.40;99.90;;;;;;5109519;28;20024;-72
2022/11/16 10:09:56;;;;;;;7.63;2.33;;;12.50;99.90;;;;;;5065551;28;20563;-72
2022/11/16 10:12:34;;;;;;;17.45;14.55;;;12.50;99.90;;;;;;5092808;28;21817;-72
2022/11/16 10:15:24;;;;;;;9.73;3.03;;;12.50;99.90;;;;;;5098142;28;20027;-72
2022/11/16 10:18:17;;;;;;;7.43;2.25;;;12.70;99.90;;;;;;5080119;28;20047;-73
2022/11/16 10:20:52;;;;;;;10.82;2.08;;;12.70;99.90;;;;;;5098611;28;20084;-72
2022/11/16 10:23:30;;;;;;;9.65;1.80;;;12.60;99.90;;;;;;5096831;28;20063;-72
2022/11/16 10:26:42;;;;;;;6.68;1.48;;;12.50;99.90;;;;;;5093131;28;20035;-73
2022/11/16 10:29:13;;;;;;;8.13;1.50;;;12.60;99.90;;;;;;5068809;28;20905;-72
2022/11/16 10:31:57;;;;;;;9.23;1.80;;;12.60;99.90;;;;;;5099132;28;20024;-73
2022/11/16 10:34:32;;;;;;;6.65;1.48;;;12.50;99.90;;;;;;5094539;28;20285;-71
2022/11/16 10:37:07;;;;;;;12.98;1.70;;;12.60;99.90;;;;;;5100807;28;20039;-72
2022/11/16 10:39:35;;;;;;;8.45;1.70;;;12.50;99.90;;;;;;5095461;28;20456;-72
2022/11/16 10:42:05;;;;;;;7.32;1.80;;;12.50;99.90;;;;;;5093640;28;20054;-72
2022/11/16 10:45:08;;;;;;;6.72;1.98;;;12.50;99.90;;;;;;5090056;28;20062;-72
2022/11/16 10:47:41;;;;;;;7.25;1.80;;;12.50;99.90;;;;;;5072320;28;20040;-72
2022/11/16 10:50:55;;;;;;;8.93;1.77;;;12.50;99.90;;;;;;5094557;28;20077;-72
2022/11/16 10:53:32;;;;;;;6.40;2.00;;;12.50;99.90;;;;;;5073010;28;20483;-72
2022/11/16 10:56:21;;;;;;;8.60;1.80;;;12.60;99.90;;;;;;5093172;28;20544;-72
2022/11/16 10:58:51;;;;;;;7.50;1.85;;;12.60;99.90;;;;;;5092159;28;20506;-71
2022/11/16 11:01:32;;;;;;;9.10;2.10;;;12.60;99.90;;;;;;5090915;28;20637;-72
2022/11/16 11:04:21;;;;;;;4.45;1.63;;;12.60;99.90;;;;;;5088272;28;20027;-72
2022/11/16 11:06:51;;;;;;;8.68;2.20;;;12.70;99.90;;;;;;5090719;28;20016;-72
2022/11/16 11:09:31;;;;;;;7.38;2.28;;;12.80;99.90;;;;;;5092914;28;20081;-72
2022/11/16 11:15:04;;;;;;;7.05;1.98;;;12.80;99.90;;;;;;5094232;28;20473;-72
2022/11/16 11:17:32;;;;;;;11.35;2.65;;;12.70;99.90;;;;;;5095079;28;20027;-72
2022/11/16 11:20:00;;;;;;;10.98;2.08;;;12.60;99.90;;;;;;5091196;28;20499;-72
2022/11/16 11:22:26;;;;;;;6.90;2.28;;;12.70;99.90;;;;;;5090652;28;20013;-71
2022/11/16 11:24:52;;;;;;;8.70;1.92;;;12.60;99.90;;;;;;5090914;28;20444;-70
2022/11/16 11:27:24;;;;;;;10.27;2.30;;;12.70;99.90;;;;;;5090188;28;20051;-71
2022/11/16 11:29:57;;;;;;;8.60;2.30;;;12.70;99.90;;;;;;5091030;28;20525;-70
2022/11/16 11:32:30;;;;;;;9.32;2.25;;;12.70;99.90;;;;;;5093677;28;20020;-71
2022/11/16 11:34:58;;;;;;;10.07;1.98;;;12.80;99.90;;;;;;5098712;28;20560;-69
2022/11/16 11:37:36;;;;;;;8.55;1.80;;;12.90;99.90;;;;;;5094890;28;20039;-70
2022/11/16 11:40:14;;;;;;;15.15;2.67;;;12.90;99.90;;;;;;5099738;28;20049;-70
2022/11/16 11:42:49;;;;;;;10.80;1.75;;;12.80;99.90;;;;;;5099316;28;20031;-71
2022/11/16 11:45:16;;;;;;;10.50;2.13;;;12.80;99.90;;;;;;5093681;28;20020;-71
2022/11/16 11:47:54;;;;;;;8.98;1.80;;;12.80;99.90;;;;;;5078182;28;20047;-71
2022/11/16 11:50:44;;;;;;;6.30;2.08;;;12.90;99.90;;;;;;5096857;28;20051;-71
2022/11/16 11:53:28;;;;;;;9.00;1.80;;;13.00;99.90;;;;;;5094211;28;20487;-71
2022/11/16 11:55:58;;;;;;;10.55;2.55;;;13.10;99.90;;;;;;5083285;28;20496;-71
2022/11/16 11:58:29;;;;;;;10.02;1.90;;;13.10;99.90;;;;;;5077064;28;20020;-71
2022/11/16 12:00:58;;;;;;;7.05;2.20;;;13.10;99.90;;;;;;5094627;28;20087;-71
2022/11/16 12:03:49;;;;;;;5.32;1.52;;;13.10;99.90;;;;;;5097642;28;20091;-70
2022/11/16 12:06:39;;;;;;;6.78;1.92;;;13.10;99.90;;;;;;5095010;28;20400;-70
2022/11/16 12:09:20;;;;;;;6.03;1.98;;;13.10;99.90;;;;;;5095579;28;20028;-71
2022/11/16 12:12:06;;;;;;;9.45;2.08;;;13.20;99.90;;;;;;5097457;28;20024;-70
2022/11/16 12:14:56;;;;;;;10.10;2.15;;;13.20;99.90;;;;;;5092717;28;20038;-71
2022/11/16 12:17:36;;;;;;;9.60;2.30;;;13.20;99.90;;;;;;5094964;28;20119;-70
2022/11/16 12:20:18;;;;;;;7.15;1.90;;;13.30;99.90;;;;;;5090946;28;20573;-71
2022/11/16 12:22:50;;;;;;;8.65;1.85;;;13.20;99.90;;;;;;5094842;28;22406;-71
2022/11/16 12:25:27;;;;;;;6.77;2.00;;;13.20;99.90;;;;;;5096218;28;20028;-71
2022/11/16 12:28:09;;;;;;;10.75;2.83;;;13.30;99.90;;;;;;5094642;28;20020;-70
2022/11/16 12:31:09;;;;;;;12.55;2.45;;;13.40;99.90;;;;;;5096061;28;20047;-70
2022/11/16 12:33:56;;;;;;;10.77;2.72;;;13.20;99.90;;;;;;5094541;28;20032;-71
2022/11/16 12:36:47;;;;;;;6.75;1.80;;;13.20;99.90;;;;;;5097505;28;20116;-70
2022/11/16 12:39:21;;;;;;;7.32;2.42;;;13.20;99.90;;;;;;5102493;28;20486;-70
2022/11/16 12:42:15;;;;;;;8.60;2.13;;;13.20;99.90;;;;;;5081695;28;20428;-70
2022/11/16 12:44:43;;;;;;;11.88;2.95;;;13.20;99.90;;;;;;5099521;28;20104;-71
2022/11/16 12:47:49;;;;;;;6.10;1.98;;;13.20;99.90;;;;;;5100491;28;20024;-71
2022/11/16 12:50:35;;;;;;;14.68;4.40;;;13.30;99.90;;;;;;5100341;27;20035;-70
2022/11/16 12:53:22;;;;;;;11.40;3.20;;;13.30;99.90;;;;;;5099622;28;20088;-71
2022/11/16 12:55:50;;;;;;;8.43;2.13;;;13.30;99.90;;;;;;5097764;28;20093;-70
2022/11/16 12:58:32;;;;;;;8.93;2.63;;;13.30;99.90;;;;;;5106172;28;20027;-70
2022/11/16 13:01:23;;;;;;;10.13;2.43;;;13.30;99.90;;;;;;5098848;27;20028;-71
2022/11/16 13:03:54;;;;;;;6.65;2.33;;;13.40;99.90;;;;;;5095565;28;20285;-71
2022/11/16 13:06:33;;;;;;;9.35;2.13;;;13.30;99.90;;;;;;5098706;28;20101;-70
2022/11/16 13:09:05;;;;;;;4.85;1.98;;;13.30;99.90;;;;;;5096472;28;20026;-70
2022/11/16 13:12:02;;;;;;;8.73;2.45;;;13.30;99.90;;;;;;5079661;28;20365;-70
2022/11/16 13:14:33;;;;;;;7.00;2.75;;;13.30;99.90;;;;;;5086297;28;20583;-71
2022/11/16 13:17:01;;;;;;;6.13;2.70;;;13.40;99.90;;;;;;5103091;28;20051;-70
2022/11/16 13:19:27;;;;;;;9.10;2.47;;;13.40;99.90;;;;;;5093765;28;20471;-70
2022/11/16 13:21:58;;;;;;;6.55;2.28;;;13.40;99.90;;;;;;5097473;28;20080;-70
2022/11/16 13:24:48;;;;;;;6.75;2.15;;;13.40;99.90;;;;;;5098112;28;20431;-71
2022/11/16 13:27:34;;;;;;;8.63;2.20;;;13.40;99.90;;;;;;5093697;28;20047;-70
2022/11/16 13:30:23;;;;;;;9.02;1.60;;;13.40;99.90;;;;;;5096757;27;20157;-71
2022/11/16 13:33:30;;;;;;;10.82;2.10;;;13.40;99.90;;;;;;5097770;28;20032;-71
2022/11/16 13:35:56;;;;;;;6.32;1.45;;;13.40;99.90;;;;;;5099302;28;20429;-70
2022/11/16 13:38:51;;;;;;;9.73;2.97;;;13.40;99.90;;;;;;5100560;28;20475;-70
2022/11/16 13:41:34;;;;;;;8.77;2.85;;;13.30;99.90;;;;;;5098958;28;20032;-70
2022/11/16 13:44:00;;;;;;;;;;;13.40;99.90;;;;;;5096572;28;20085;-70
2022/11/16 13:46:44;;;;;;;7.43;2.70;;;13.30;99.90;;;;;;5097137;28;19911;-71
2022/11/16 13:49:30;;;;;;;4.53;1.92;;;13.40;99.90;;;;;;5096172;28;20035;-70